This is the latest recevied weather packets stored in our database for station/object IQ8VX-3. If no packets are shown the sender has not sent any weather packets the latest 10 day(s).
| Time | Temp. | Humidity | Pressure | Rain* | Wind** | Luminosity | Snow |
|---|---|---|---|---|---|---|---|
| 1777915009 | 20° C | 53% | 1705.8 hPa | - | - | - | - |
| 1777913809 | 20.56° C | 55% | 1707.8 hPa | - | - | - | - |
| 1777912608 | 20° C | 56% | 1706.9 hPa | - | - | - | - |
| 1777911408 | 20° C | 60% | 1706.8 hPa | - | - | - | - |
| 1777910208 | 21.67° C | 57% | 1711 hPa | - | - | - | - |
| 1777909007 | 21.67° C | 60% | 1710.7 hPa | - | - | - | - |
| 1777907807 | 21.67° C | 69% | 1710.2 hPa | - | - | - | - |
| 1777906607 | 21.67° C | 69% | 1711.4 hPa | - | - | - | - |
| 1777905406 | 21.11° C | 69% | 1710 hPa | - | - | - | - |
| 1777904206 | 21.67° C | 69% | 1711.6 hPa | - | - | - | - |
| 1777903006 | 21.11° C | 71% | 1709 hPa | - | - | - | - |
| 1777901806 | 21.67° C | 68% | 1710.4 hPa | - | - | - | - |
| 1777900605 | 21.67° C | 68% | 1710.9 hPa | - | - | - | - |
| 1777899405 | 21.11° C | 69% | 1709.3 hPa | - | - | - | - |
| 1777898205 | 20.56° C | 71% | 1707.9 hPa | - | - | - | - |
| 1777897004 | 20.56° C | 69% | 1707.8 hPa | - | - | - | - |
| 1777895804 | 20.56° C | 67% | 1707.6 hPa | - | - | - | - |
| 1777894604 | 20.56° C | 70% | 1707.4 hPa | - | - | - | - |
| 1777893403 | 19.44° C | 73% | 1705.3 hPa | - | - | - | - |
| 1777892203 | 20° C | 72% | 1706.1 hPa | - | - | - | - |
| 1777891002 | 19.44° C | 74% | 1704.8 hPa | - | - | - | - |
| 1777889802 | 19.44° C | 74% | 1705.4 hPa | - | - | - | - |
| 1777888601 | 18.89° C | 75% | 1703.8 hPa | - | - | - | - |
| 1777887401 | 18.89° C | 75% | 1703.8 hPa | - | - | - | - |
| 1777886201 | 18.89° C | 72% | 1703.1 hPa | - | - | - | - |
* Rain since midnight (hover to see other rain measurements)
** Current wind speed in m/s (hover to see current wind gust speed)